Time,TemperatureF,DewpointF,PressureIn,WindDirection,WindDirectionDegrees,WindSpeedMPH,WindSpeedGustMPH,Humidity,HourlyPrecipIn,Conditions,Clouds,dailyrainin,SolarRadiationWatts/m^2,SoftwareType,DateUTC
2013-05-26 00:00:00,42.6,41.0,29.87,SSE,157,1.0,5.0,92,0.00,,,0.01,0,weatherlink.com 1.10,2013-05-26 04:00:00,
2013-05-26 00:15:00,42.5,41.0,29.87,West,261,0.0,5.0,93,0.00,,,0.01,0,weatherlink.com 1.10,2013-05-26 04:15:00,
2013-05-26 00:30:00,42.4,41.0,29.87,WSW,257,0.0,6.0,93,0.00,,,0.01,0,weatherlink.com 1.10,2013-05-26 04:30:00,
2013-05-26 00:45:00,42.5,41.0,29.87,SSE,162,0.0,4.0,94,0.00,,,0.01,0,weatherlink.com 1.10,2013-05-26 04:45:00,
2013-05-26 01:00:00,42.7,41.0,29.87,WSW,242,1.0,5.0,93,0.01,,,0.02,0,weatherlink.com 1.10,2013-05-26 05:00:00,
2013-05-26 01:15:00,43.0,41.0,29.87,East,84,2.0,5.0,93,0.01,,,0.02,0,weatherlink.com 1.10,2013-05-26 05:15:00,
2013-05-26 01:30:00,43.1,41.0,29.87,South,183,2.0,7.0,93,0.01,,,0.02,0,weatherlink.com 1.10,2013-05-26 05:30:00,
2013-05-26 01:45:00,43.3,41.0,29.87,West,278,4.0,7.0,92,0.01,,,0.02,0,weatherlink.com 1.10,2013-05-26 05:45:00,
2013-05-26 02:00:00,43.5,41.0,29.87,WNW,283,3.0,6.0,91,0.00,,,0.02,0,weatherlink.com 1.10,2013-05-26 06:00:00,
2013-05-26 02:15:00,43.7,41.0,29.87,SSW,200,2.0,7.0,91,0.00,,,0.02,0,weatherlink.com 1.10,2013-05-26 06:15:00,
2013-05-26 02:30:00,43.8,41.0,29.87,SSE,163,3.0,5.0,91,0.00,,,0.02,0,weatherlink.com 1.10,2013-05-26 06:30:00,
2013-05-26 02:45:00,43.6,41.0,29.87,SW,219,2.0,6.0,90,0.00,,,0.02,0,weatherlink.com 1.10,2013-05-26 06:45:00,
2013-05-26 03:00:00,43.6,41.0,29.87,SSW,197,1.0,5.0,90,0.00,,,0.02,0,weatherlink.com 1.10,2013-05-26 07:00:00,
2013-05-26 03:15:00,43.4,41.0,29.87,SSW,200,3.0,6.0,92,0.00,,,0.02,0,weatherlink.com 1.10,2013-05-26 07:15:00,
2013-05-26 03:30:00,43.3,41.0,29.86,SSE,165,2.0,9.0,92,0.00,,,0.02,0,weatherlink.com 1.10,2013-05-26 07:30:00,
2013-05-26 03:45:00,43.4,41.0,29.86,SW,235,3.0,7.0,91,0.00,,,0.02,0,weatherlink.com 1.10,2013-05-26 07:45:00,
2013-05-26 04:00:00,43.5,41.0,29.86,West,265,3.0,4.0,91,0.00,,,0.02,0,weatherlink.com 1.10,2013-05-26 08:00:00,
2013-05-26 04:15:00,43.6,41.0,29.87,SSW,198,2.0,8.0,90,0.00,,,0.02,0,weatherlink.com 1.10,2013-05-26 08:15:00,
2013-05-26 04:30:00,43.8,41.0,29.87,West,274,3.0,7.0,90,0.00,,,0.02,0,weatherlink.com 1.10,2013-05-26 08:30:00,
2013-05-26 04:45:00,44.1,41.0,29.87,East,92,2.0,7.0,89,0.00,,,0.02,0,weatherlink.com 1.10,2013-05-26 08:45:00,
2013-05-26 05:00:00,44.1,41.0,29.87,West,277,2.0,8.0,90,0.00,,,0.02,0,weatherlink.com 1.10,2013-05-26 09:00:00,
2013-05-26 05:15:00,44.0,41.0,29.88,West,280,1.0,6.0,89,0.00,,,0.02,0,weatherlink.com 1.10,2013-05-26 09:15:00,
2013-05-26 05:30:00,44.1,41.0,29.89,SE,139,3.0,9.0,89,0.00,,,0.02,5,weatherlink.com 1.10,2013-05-26 09:30:00,
2013-05-26 05:45:00,44.0,41.0,29.89,WSW,246,3.0,10.0,89,0.00,,,0.02,7,weatherlink.com 1.10,2013-05-26 09:45:00,
2013-05-26 06:00:00,43.9,41.0,29.90,West,271,1.0,7.0,89,0.00,,,0.02,14,weatherlink.com 1.10,2013-05-26 10:00:00,
2013-05-26 06:15:00,44.1,41.0,29.90,West,272,2.0,8.0,88,0.00,,,0.02,16,weatherlink.com 1.10,2013-05-26 10:15:00,
2013-05-26 06:30:00,44.3,41.0,29.90,SW,232,1.0,7.0,88,0.00,,,0.02,14,weatherlink.com 1.10,2013-05-26 10:30:00,
2013-05-26 06:45:00,44.7,41.0,29.91,SE,145,5.0,7.0,88,0.00,,,0.02,19,weatherlink.com 1.10,2013-05-26 10:45:00,
2013-05-26 07:00:00,45.5,42.0,29.91,WNW,286,2.0,10.0,87,0.00,,,0.02,40,weatherlink.com 1.10,2013-05-26 11:00:00,
2013-05-26 07:15:00,46.2,42.0,29.91,SW,215,4.0,9.0,86,0.00,,,0.02,69,weatherlink.com 1.10,2013-05-26 11:15:00,
2013-05-26 07:30:00,47.4,43.0,29.92,West,272,2.0,12.0,85,0.00,,,0.02,90,weatherlink.com 1.10,2013-05-26 11:30:00,
2013-05-26 07:45:00,48.5,43.0,29.92,West,273,3.0,9.0,82,0.00,,,0.02,86,weatherlink.com 1.10,2013-05-26 11:45:00,
2013-05-26 08:00:00,48.8,44.0,29.92,SW,236,5.0,9.0,82,0.00,,,0.02,114,weatherlink.com 1.10,2013-05-26 12:00:00,
2013-05-26 08:15:00,49.0,44.0,29.93,South,180,5.0,8.0,83,0.00,,,0.02,67,weatherlink.com 1.10,2013-05-26 12:15:00,
2013-05-26 08:31:00,50.2,44.0,29.93,SSW,211,5.0,12.0,80,0.00,,,0.02,120,weatherlink.com 1.10,2013-05-26 12:31:00,
2013-05-26 08:46:00,51.2,44.0,29.93,West,261,10.0,16.0,77,0.00,,,0.02,107,weatherlink.com 1.10,2013-05-26 12:46:00,
2013-05-26 09:01:00,51.6,45.0,29.93,West,272,8.0,8.0,78,0.00,,,0.02,156,weatherlink.com 1.10,2013-05-26 13:01:00,
2013-05-26 09:16:00,52.4,44.0,29.94,West,271,3.0,12.0,74,0.00,,,0.02,204,weatherlink.com 1.10,2013-05-26 13:16:00,
2013-05-26 09:31:00,52.2,44.0,29.94,SSW,202,3.0,8.0,73,0.00,,,0.02,304,weatherlink.com 1.10,2013-05-26 13:31:00,
2013-05-26 09:46:00,53.5,46.0,29.94,South,190,3.0,6.0,77,0.00,,,0.02,230,weatherlink.com 1.10,2013-05-26 13:46:00,
2013-05-26 10:01:00,53.1,45.0,29.95,SSE,150,2.0,8.0,74,0.00,,,0.02,250,weatherlink.com 1.10,2013-05-26 14:01:00,
2013-05-26 10:16:00,53.2,45.0,29.95,NE,40,3.0,17.0,73,0.00,,,0.02,214,weatherlink.com 1.10,2013-05-26 14:16:00,
2013-05-26 10:31:00,54.1,45.0,29.95,NW,325,4.0,11.0,71,0.00,,,0.02,415,weatherlink.com 1.10,2013-05-26 14:31:00,
2013-05-26 10:46:00,54.5,45.0,29.95,SW,234,4.0,7.0,70,0.00,,,0.02,190,weatherlink.com 1.10,2013-05-26 14:46:00,
2013-05-26 11:01:00,54.3,45.0,29.95,West,264,4.0,15.0,71,0.00,,,0.02,253,weatherlink.com 1.10,2013-05-26 15:01:00,
2013-05-26 11:16:00,54.9,44.0,29.96,West,269,1.0,9.0,68,0.00,,,0.02,237,weatherlink.com 1.10,2013-05-26 15:16:00,
2013-05-26 11:31:00,56.3,45.0,29.96,West,269,3.0,8.0,66,0.00,,,0.02,490,weatherlink.com 1.10,2013-05-26 15:31:00,
2013-05-26 11:46:00,56.7,45.0,29.96,SW,216,1.0,9.0,66,0.00,,,0.02,265,weatherlink.com 1.10,2013-05-26 15:46:00,
2013-05-26 12:01:00,57.2,47.0,29.97,SSW,197,5.0,8.0,68,0.00,,,0.02,520,weatherlink.com 1.10,2013-05-26 16:01:00,
2013-05-26 12:16:00,57.8,46.0,29.97,WNW,300,4.0,8.0,65,0.00,,,0.02,617,weatherlink.com 1.10,2013-05-26 16:16:00,
2013-05-26 12:31:00,56.8,44.0,29.97,SSE,155,2.0,14.0,63,0.00,,,0.02,415,weatherlink.com 1.10,2013-05-26 16:31:00,
2013-05-26 12:46:00,57.6,46.0,29.97,NNW,338,1.0,9.0,66,0.00,,,0.02,687,weatherlink.com 1.10,2013-05-26 16:46:00,
2013-05-26 13:01:00,58.5,46.0,29.97,SW,230,2.0,8.0,63,0.00,,,0.02,404,weatherlink.com 1.10,2013-05-26 17:01:00,
2013-05-26 13:16:00,58.7,45.0,29.98,NE,34,2.0,7.0,61,0.00,,,0.02,364,weatherlink.com 1.10,2013-05-26 17:16:00,
2013-05-26 13:31:00,59.0,44.0,29.98,South,171,8.0,8.0,59,0.00,,,0.02,158,weatherlink.com 1.10,2013-05-26 17:31:00,
2013-05-26 13:46:00,60.2,50.0,29.98,NW,306,1.0,12.0,69,0.00,,,0.02,1125,weatherlink.com 1.10,2013-05-26 17:46:00,
2013-05-26 14:01:00,59.8,46.0,29.98,West,278,1.0,6.0,60,0.00,,,0.02,165,weatherlink.com 1.10,2013-05-26 18:01:00,
2013-05-26 14:16:00,60.6,47.0,29.98,West,275,1.0,8.0,62,0.00,,,0.02,1165,weatherlink.com 1.10,2013-05-26 18:16:00,
2013-05-26 14:31:00,60.2,45.0,29.99,SSW,201,7.0,8.0,57,0.00,,,0.02,236,weatherlink.com 1.10,2013-05-26 18:31:00,
2013-05-26 14:46:00,61.6,44.0,29.99,WNW,290,6.0,8.0,53,0.00,,,0.02,174,weatherlink.com 1.10,2013-05-26 18:46:00,
2013-05-26 15:01:00,60.6,44.0,29.99,WSW,245,2.0,11.0,54,0.00,,,0.02,135,weatherlink.com 1.10,2013-05-26 19:01:00,
2013-05-26 15:16:00,60.9,47.0,30.00,NW,306,4.0,9.0,60,0.00,,,0.02,272,weatherlink.com 1.10,2013-05-26 19:16:00,
2013-05-26 15:31:00,60.4,46.0,30.00,North,355,6.0,11.0,60,0.00,,,0.02,158,weatherlink.com 1.10,2013-05-26 19:31:00,
2013-05-26 15:46:00,60.0,47.0,30.00,NW,323,1.0,6.0,62,0.00,,,0.02,693,weatherlink.com 1.10,2013-05-26 19:46:00,
2013-05-26 16:02:00,60.6,44.0,30.01,WNW,285,1.0,8.0,54,0.00,,,0.02,169,weatherlink.com 1.10,2013-05-26 20:02:00,
2013-05-26 16:17:00,60.5,45.0,30.02,ENE,70,3.0,10.0,56,0.00,,,0.02,46,weatherlink.com 1.10,2013-05-26 20:17:00,
2013-05-26 16:32:00,57.8,48.0,30.03,West,270,1.0,7.0,70,0.00,,,0.02,54,weatherlink.com 1.10,2013-05-26 20:32:00,
2013-05-26 16:47:00,56.9,46.0,30.03,SSE,153,2.0,8.0,67,0.00,,,0.02,759,weatherlink.com 1.10,2013-05-26 20:47:00,
2013-05-26 17:02:00,57.9,45.0,30.04,SSE,148,2.0,12.0,62,0.00,,,0.02,116,weatherlink.com 1.10,2013-05-26 21:02:00,
2013-05-26 17:17:00,57.6,45.0,30.05,WNW,301,2.0,10.0,64,0.00,,,0.02,130,weatherlink.com 1.10,2013-05-26 21:17:00,
2013-05-26 17:32:00,57.1,46.0,30.05,WNW,286,0.0,7.0,67,0.00,,,0.02,65,weatherlink.com 1.10,2013-05-26 21:32:00,
2013-05-26 17:47:00,55.1,49.0,30.07,NNW,331,0.0,4.0,80,0.00,,,0.02,181,weatherlink.com 1.10,2013-05-26 21:47:00,
2013-05-26 18:02:00,53.8,48.0,30.07,NNE,12,2.0,5.0,82,0.00,,,0.02,42,weatherlink.com 1.10,2013-05-26 22:02:00,
2013-05-26 18:17:00,53.2,48.0,30.08,ENE,71,1.0,6.0,82,0.00,,,0.02,33,weatherlink.com 1.10,2013-05-26 22:17:00,
2013-05-26 18:32:00,53.1,47.0,30.09,ESE,123,1.0,5.0,81,0.00,,,0.02,26,weatherlink.com 1.10,2013-05-26 22:32:00,
2013-05-26 18:47:00,52.8,47.0,30.10,East,83,6.0,6.0,81,0.00,,,0.02,56,weatherlink.com 1.10,2013-05-26 22:47:00,
2013-05-26 19:02:00,53.1,46.0,30.10,ENE,58,3.0,6.0,78,0.00,,,0.02,23,weatherlink.com 1.10,2013-05-26 23:02:00,
2013-05-26 19:17:00,53.1,45.0,30.11,NW,315,3.0,5.0,73,0.00,,,0.00,14,weatherlink.com 1.10,2013-05-26 23:17:00,
2013-05-26 19:32:00,52.7,44.0,30.11,SSW,194,0.0,9.0,73,0.00,,,0.00,11,weatherlink.com 1.10,2013-05-26 23:32:00,
2013-05-26 19:47:00,52.3,44.0,30.12,NNW,332,1.0,8.0,74,0.00,,,0.00,5,weatherlink.com 1.10,2013-05-26 23:47:00,
2013-05-26 20:02:00,52.0,44.0,30.13,NW,305,0.0,8.0,73,0.00,,,0.00,0,weatherlink.com 1.10,2013-05-27 00:02:00,
2013-05-26 20:17:00,51.6,44.0,30.14,ENE,57,0.0,4.0,75,0.00,,,0.00,0,weatherlink.com 1.10,2013-05-27 00:17:00,
2013-05-26 20:32:00,51.2,44.0,30.14,NE,42,0.0,9.0,75,0.00,,,0.00,0,weatherlink.com 1.10,2013-05-27 00:32:00,
2013-05-26 20:47:00,50.8,44.0,30.15,WSW,240,0.0,5.0,77,0.00,,,0.00,0,weatherlink.com 1.10,2013-05-27 00:47:00,
2013-05-26 21:02:00,50.3,44.0,30.15,South,169,0.0,3.0,78,0.00,,,0.00,0,weatherlink.com 1.10,2013-05-27 01:02:00,
2013-05-26 21:17:00,49.6,43.0,30.16,SE,136,0.0,2.0,79,0.00,,,0.00,0,weatherlink.com 1.10,2013-05-27 01:17:00,
2013-05-26 21:32:00,48.7,43.0,30.17,SE,136,0.0,1.0,81,0.00,,,0.00,0,weatherlink.com 1.10,2013-05-27 01:32:00,
2013-05-26 21:47:00,48.0,43.0,30.17,SE,136,0.0,1.0,84,0.00,,,0.00,0,weatherlink.com 1.10,2013-05-27 01:47:00,
2013-05-26 22:02:00,47.1,43.0,30.18,SE,136,0.0,0.0,85,0.00,,,0.00,0,weatherlink.com 1.10,2013-05-27 02:02:00,
2013-05-26 22:17:00,46.3,43.0,30.18,SE,136,0.0,1.0,87,0.00,,,0.00,0,weatherlink.com 1.10,2013-05-27 02:17:00,
2013-05-26 22:32:00,45.6,43.0,30.19,SE,136,0.0,0.0,89,0.00,,,0.00,0,weatherlink.com 1.10,2013-05-27 02:32:00,
2013-05-26 22:48:00,45.2,42.0,30.19,SE,136,0.0,0.0,89,0.00,,,0.00,0,weatherlink.com 1.10,2013-05-27 02:48:00,
2013-05-26 23:03:00,44.6,42.0,30.19,SE,136,0.0,0.0,89,0.00,,,0.00,0,weatherlink.com 1.10,2013-05-27 03:03:00,
2013-05-26 23:18:00,44.0,42.0,30.20,SE,136,0.0,0.0,91,0.00,,,0.00,0,weatherlink.com 1.10,2013-05-27 03:18:00,
2013-05-26 23:33:00,43.4,41.0,30.20,SE,136,0.0,0.0,92,0.00,,,0.00,0,weatherlink.com 1.10,2013-05-27 03:33:00,
2013-05-26 23:48:00,43.0,41.0,30.21,SE,136,0.0,0.0,92,0.00,,,0.00,0,weatherlink.com 1.10,2013-05-27 03:48:00,